Terminal Aerodrome Forecast
Issued by NWS Sterling, VA

Current Version | Previous Version | Graphics & Text | Print | Product List | Glossary On
Versions: 1 2 3 4 5 6 7 8 9 10 11 12 13 14 15 16 17 18 19 20 21 22 23
371
FTUS41 KLWX 060919 AAA
TAFDCA
TAF AMD
KDCA 060919Z 0609/0706 VRB03KT P6SM BKN200
     FM061600 19007KT P6SM BKN200
     FM070000 VRB03KT P6SM BKN200=

USA.gov is the U.S. government's official web portal to all federal, state and local government web resources and services.